createdAt,value
2018-04-11T00:01:23.797Z,10.44
2018-04-11T00:03:52.051Z,10.40
2018-04-11T00:06:20.314Z,10.42
2018-04-11T00:08:48.608Z,10.32
2018-04-11T00:11:16.886Z,10.41
2018-04-11T00:13:45.161Z,10.42
2018-04-11T00:16:13.438Z,10.19
2018-04-11T00:18:41.737Z,10.24
2018-04-11T00:21:10.759Z,10.29
2018-04-11T00:23:39.820Z,10.13
2018-04-11T00:26:08.067Z,10.17
2018-04-11T00:28:36.604Z,10.22
2018-04-11T00:31:05.644Z,10.07
2018-04-11T00:33:34.018Z,10.07
2018-04-11T00:36:02.455Z,10.07
2018-04-11T00:38:31.589Z,10.09
2018-04-11T00:40:59.837Z,10.20
2018-04-11T00:43:28.114Z,10.22
2018-04-11T00:45:56.406Z,10.19
2018-04-11T00:48:24.675Z,10.06
2018-04-11T00:50:52.936Z,10.06
2018-04-11T00:53:28.013Z,9.92
2018-04-11T00:55:56.280Z,9.94
2018-04-11T00:58:24.550Z,10.00
2018-04-11T01:00:52.820Z,10.00
2018-04-11T01:03:21.091Z,10.04
2018-04-11T01:05:49.477Z,9.89
2018-04-11T01:08:17.754Z,9.91
2018-04-11T01:10:46.027Z,9.87
2018-04-11T01:13:14.272Z,9.94
2018-04-11T01:15:42.545Z,9.91
2018-04-11T01:18:10.803Z,9.93
2018-04-11T01:20:40.245Z,9.88
2018-04-11T01:23:08.517Z,9.91
2018-04-11T01:25:36.797Z,9.90
2018-04-11T01:28:05.067Z,9.87
2018-04-11T01:30:33.319Z,9.80
2018-04-11T01:33:02.346Z,9.86
2018-04-11T01:35:30.605Z,9.83
2018-04-11T01:37:58.875Z,9.75
2018-04-11T01:40:27.113Z,9.76
2018-04-11T01:42:56.142Z,9.63
2018-04-11T01:45:24.454Z,9.67
2018-04-11T01:47:52.716Z,9.73
2018-04-11T01:50:20.979Z,9.74
2018-04-11T01:52:49.262Z,9.64
2018-04-11T01:55:17.501Z,9.61
2018-04-11T01:57:45.842Z,9.48
2018-04-11T02:00:14.100Z,9.47
2018-04-11T02:02:42.614Z,9.56
2018-04-11T02:05:11.688Z,9.43
2018-04-11T02:07:39.995Z,9.47
2018-04-11T02:10:09.115Z,9.43
2018-04-11T02:12:37.377Z,9.36
2018-04-11T02:15:05.730Z,9.35
2018-04-11T02:17:33.965Z,9.27
2018-04-11T02:20:02.234Z,9.39
2018-04-11T02:22:30.499Z,9.25
2018-04-11T02:24:58.785Z,9.28
2018-04-11T02:27:27.056Z,9.27
2018-04-11T02:29:55.330Z,9.27
2018-04-11T02:32:23.586Z,9.30
2018-04-11T02:34:51.875Z,9.27
2018-04-11T02:37:20.245Z,9.25
2018-04-11T02:39:49.285Z,9.20
2018-04-11T02:42:17.543Z,9.24
2018-04-11T02:44:45.949Z,9.32
2018-04-11T02:47:14.201Z,9.13
2018-04-11T02:49:42.450Z,9.18
2018-04-11T02:52:10.727Z,9.16
2018-04-11T02:54:38.980Z,9.18
2018-04-11T02:57:07.275Z,9.08
2018-04-11T02:59:35.549Z,9.16
2018-04-11T03:02:03.823Z,9.12
2018-04-11T03:04:32.074Z,9.17
2018-04-11T03:07:00.480Z,9.21
2018-04-11T03:09:28.722Z,9.19
2018-04-11T03:11:56.981Z,9.27
2018-04-11T03:14:26.021Z,9.17
2018-04-11T03:16:54.276Z,9.17
2018-04-11T03:19:22.541Z,9.14
2018-04-11T03:21:51.723Z,9.19
2018-04-11T03:24:20.764Z,9.12
2018-04-11T03:26:49.210Z,9.17
2018-04-11T03:29:18.225Z,9.09
2018-04-11T03:31:46.492Z,9.15
2018-04-11T03:34:14.765Z,9.21
2018-04-11T03:36:43.034Z,9.18
2018-04-11T03:39:11.310Z,9.17
2018-04-11T03:41:39.549Z,9.11
2018-04-11T03:44:07.816Z,9.16
2018-04-11T03:46:36.157Z,9.20
2018-04-11T03:49:04.435Z,9.18
2018-04-11T03:51:32.702Z,9.14
2018-04-11T03:54:00.954Z,9.19
2018-04-11T03:56:29.232Z,9.27
2018-04-11T03:58:57.527Z,9.09
2018-04-11T04:01:25.808Z,9.10
2018-04-11T04:03:54.314Z,9.14
2018-04-11T04:06:22.704Z,9.19
2018-04-11T04:08:50.937Z,9.17
2018-04-11T04:11:19.194Z,9.18
2018-04-11T04:17:19.095Z,8.99
2018-04-11T04:20:05.866Z,8.90
2018-04-11T04:22:34.150Z,8.95
2018-04-11T04:25:02.510Z,8.92
2018-04-11T04:27:30.797Z,8.93
2018-04-11T04:29:59.052Z,8.90
2018-04-11T04:32:27.336Z,8.84
2018-04-11T04:34:55.845Z,8.84
2018-04-11T04:37:24.128Z,8.75
2018-04-11T04:39:52.371Z,8.83
2018-04-11T04:42:20.640Z,8.83
2018-04-11T04:44:48.903Z,8.80
2018-04-11T04:47:17.139Z,8.71
2018-04-11T04:49:46.170Z,8.84
2018-04-11T04:52:14.421Z,8.68
2018-04-11T04:54:42.827Z,8.71
2018-04-11T04:57:11.503Z,8.79
2018-04-11T04:59:39.858Z,8.71
2018-04-11T05:02:09.047Z,8.71
2018-04-11T05:04:37.388Z,8.69
2018-04-11T05:07:05.847Z,8.85
2018-04-11T05:09:34.114Z,8.56
2018-04-11T05:12:02.491Z,8.49
2018-04-11T05:14:30.752Z,8.55
2018-04-11T05:16:59.265Z,8.66
2018-04-11T05:19:27.542Z,8.73
2018-04-11T05:21:55.813Z,8.67
2018-04-11T05:24:24.077Z,8.60
2018-04-11T05:26:52.499Z,8.54
2018-04-11T05:29:21.514Z,8.55
2018-04-11T05:31:50.021Z,8.63
2018-04-11T05:34:18.275Z,8.85
2018-04-11T05:36:46.677Z,8.88
2018-04-11T05:39:14.969Z,8.76
2018-04-11T05:41:43.233Z,8.72
2018-04-11T05:44:11.480Z,8.98
2018-04-11T05:46:39.785Z,9.13
2018-04-11T05:49:08.051Z,9.06
2018-04-11T05:51:36.331Z,9.05
2018-04-11T05:54:04.914Z,8.98
2018-04-11T05:56:33.182Z,8.94
2018-04-11T05:59:01.499Z,8.92
2018-04-11T06:01:29.749Z,8.93
2018-04-11T06:03:58.016Z,8.96
2018-04-11T06:06:26.265Z,9.32
2018-04-11T06:08:54.533Z,9.23
2018-04-11T06:11:22.793Z,9.32
2018-04-11T06:13:51.846Z,9.36
2018-04-11T06:16:20.126Z,9.41
2018-04-11T06:18:48.405Z,9.26
2018-04-11T06:21:16.668Z,9.31
2018-04-11T06:23:45.123Z,9.42
2018-04-11T06:26:13.400Z,9.54
2018-04-11T06:28:41.865Z,9.59
2018-04-11T06:31:10.277Z,9.59
2018-04-11T06:33:38.613Z,9.73
2018-04-11T06:36:06.886Z,9.91
2018-04-11T06:38:35.143Z,10.08
2018-04-11T06:41:04.386Z,10.10
2018-04-11T06:43:32.681Z,10.27
2018-04-11T06:46:00.966Z,10.42
2018-04-11T06:48:29.241Z,10.46
2018-04-11T06:50:57.505Z,10.60
2018-04-11T06:53:25.802Z,10.60
2018-04-11T06:55:54.870Z,10.68
2018-04-11T06:58:23.136Z,10.91
2018-04-11T07:00:51.407Z,10.85
2018-04-11T07:03:19.683Z,10.97
2018-04-11T07:05:47.972Z,11.13
2018-04-11T07:08:16.285Z,11.28
2018-04-11T07:10:45.406Z,11.28
2018-04-11T07:13:13.701Z,11.37
2018-04-11T07:15:41.977Z,11.50
2018-04-11T07:18:10.382Z,11.66
2018-04-11T07:20:38.678Z,11.76
2018-04-11T07:23:07.104Z,11.79
2018-04-11T07:25:35.361Z,11.91
2018-04-11T07:28:03.658Z,11.92
2018-04-11T07:30:31.931Z,11.94
2018-04-11T07:33:00.212Z,12.09
2018-04-11T07:35:28.486Z,11.99
2018-04-11T07:37:56.760Z,12.03
2018-04-11T07:40:25.095Z,11.92
2018-04-11T07:42:53.311Z,11.98
2018-04-11T07:45:21.608Z,12.30
2018-04-11T07:47:50.062Z,11.90
2018-04-11T07:50:18.373Z,11.78
2018-04-11T07:52:46.673Z,12.10
2018-04-11T07:55:15.763Z,12.21
2018-04-11T07:57:44.037Z,12.44
2018-04-11T08:00:13.283Z,12.54
2018-04-11T08:02:41.660Z,12.40
2018-04-11T08:05:09.928Z,12.22
2018-04-11T08:07:38.209Z,12.30
2018-04-11T08:10:06.528Z,12.44
2018-04-11T08:12:34.964Z,12.52
2018-04-11T08:15:03.245Z,12.28
2018-04-11T08:17:31.529Z,12.45
2018-04-11T08:19:59.905Z,12.55
2018-04-11T08:22:28.186Z,12.47
2018-04-11T08:24:56.631Z,12.58
2018-04-11T08:27:24.934Z,12.67
2018-04-11T08:29:53.219Z,12.64
2018-04-11T08:32:21.685Z,12.91
2018-04-11T08:34:49.978Z,12.92
2018-04-11T08:37:18.258Z,12.95
2018-04-11T08:39:46.510Z,13.32
2018-04-11T08:42:14.794Z,13.21
2018-04-11T08:44:43.058Z,13.32
2018-04-11T08:47:11.433Z,13.51
2018-04-11T08:49:39.714Z,13.52
2018-04-11T08:52:08.028Z,13.58
2018-04-11T08:54:36.311Z,13.49
2018-04-11T08:57:05.331Z,13.52
2018-04-11T08:59:33.629Z,13.73
2018-04-11T09:02:01.877Z,13.75
2018-04-11T09:04:30.139Z,13.96
2018-04-11T09:06:59.260Z,14.29
2018-04-11T09:09:27.517Z,14.56
2018-04-11T09:11:55.830Z,14.87
2018-04-11T09:14:24.149Z,14.87
2018-04-11T09:16:53.187Z,15.45
2018-04-11T09:19:21.748Z,16.36
2018-04-11T09:21:50.042Z,17.02
2018-04-11T09:24:18.523Z,19.15
2018-04-11T09:26:46.802Z,19.72
2018-04-11T09:29:15.068Z,19.93
2018-04-11T09:31:43.409Z,19.27
2018-04-11T09:34:11.680Z,19.81
2018-04-11T09:36:40.055Z,21.02
2018-04-11T09:39:08.381Z,21.24
2018-04-11T09:41:36.655Z,20.14
2018-04-11T09:44:04.931Z,20.53
2018-04-11T09:46:33.307Z,21.32
2018-04-11T09:49:01.590Z,21.03
2018-04-11T09:51:29.858Z,21.44
2018-04-11T09:53:58.151Z,21.98
2018-04-11T09:56:26.421Z,22.64
2018-04-11T09:58:54.779Z,23.16
2018-04-11T10:01:23.388Z,22.88
2018-04-11T10:03:51.747Z,22.57
2018-04-11T10:06:21.384Z,23.97
2018-04-11T10:08:49.674Z,23.06
2018-04-11T10:11:18.743Z,22.63
2018-04-11T10:13:47.033Z,22.65
2018-04-11T10:16:15.371Z,23.15
2018-04-11T10:18:43.672Z,22.91
2018-04-11T10:21:11.943Z,23.21
2018-04-11T10:23:40.184Z,23.99
2018-04-11T10:26:08.496Z,24.71
2018-04-11T10:28:36.923Z,22.49
2018-04-11T10:31:05.953Z,22.93
2018-04-11T10:33:34.232Z,23.93
2018-04-11T10:36:02.491Z,23.85
2018-04-11T10:38:30.749Z,24.99
2018-04-11T10:40:59.042Z,24.55
2018-04-11T10:43:27.478Z,23.93
2018-04-11T10:45:56.537Z,24.17
2018-04-11T10:48:24.825Z,23.63
2018-04-11T10:50:53.175Z,24.37
2018-04-11T10:53:21.435Z,24.26
2018-04-11T10:55:49.727Z,24.68
2018-04-11T10:58:18.004Z,24.82
2018-04-11T11:00:46.414Z,25.05
2018-04-11T11:03:14.663Z,25.71
2018-04-11T11:05:43.023Z,25.66
2018-04-11T11:08:11.303Z,25.52
2018-04-11T11:10:39.663Z,25.10
2018-04-11T11:13:08.070Z,24.67
2018-04-11T11:15:36.370Z,24.46
2018-04-11T11:18:04.647Z,24.66
2018-04-11T11:20:33.672Z,25.35
2018-04-11T11:23:01.983Z,25.94
2018-04-11T11:25:30.882Z,24.87
2018-04-11T11:27:59.174Z,25.69
2018-04-11T11:30:27.461Z,24.81
2018-04-11T11:32:56.501Z,25.39
2018-04-11T11:35:24.778Z,26.53
2018-04-11T11:37:53.062Z,25.58
2018-04-11T11:40:21.342Z,24.47
2018-04-11T11:42:49.618Z,24.64
2018-04-11T11:45:17.925Z,24.16
2018-04-11T11:47:46.192Z,24.16
2018-04-11T11:50:14.489Z,25.42
2018-04-11T11:52:43.525Z,25.69
2018-04-11T11:55:11.802Z,24.99
2018-04-11T11:57:40.085Z,24.88
2018-04-11T12:00:08.352Z,26.34
2018-04-11T12:02:37.097Z,26.27
2018-04-11T12:05:06.128Z,26.60
2018-04-11T12:07:34.559Z,25.81
2018-04-11T12:10:03.637Z,26.40
2018-04-11T12:12:31.933Z,25.76
2018-04-11T12:15:01.001Z,26.54
2018-04-11T12:17:29.352Z,26.69
2018-04-11T12:19:57.626Z,26.98
2018-04-11T12:22:25.904Z,27.15
2018-04-11T12:24:54.167Z,27.13
2018-04-11T12:27:22.448Z,27.28
2018-04-11T12:29:50.829Z,26.30
2018-04-11T12:32:19.117Z,25.20
2018-04-11T12:34:47.390Z,25.82
2018-04-11T12:37:15.645Z,24.54
2018-04-11T12:39:43.931Z,24.25
2018-04-11T12:42:12.206Z,23.61
2018-04-11T12:44:40.491Z,22.78
2018-04-11T12:47:08.755Z,21.72
2018-04-11T12:49:37.145Z,21.27
2018-04-11T12:52:05.407Z,20.96
2018-04-11T12:54:33.699Z,21.21
2018-04-11T12:57:01.973Z,20.93
2018-04-11T12:59:30.239Z,20.26
2018-04-11T13:01:58.510Z,19.77
2018-04-11T13:04:26.789Z,20.16
2018-04-11T13:06:55.078Z,20.39
2018-04-11T13:09:23.427Z,20.72
2018-04-11T13:11:51.712Z,20.78
2018-04-11T13:14:20.030Z,20.82
2018-04-11T13:16:49.412Z,20.70
2018-04-11T13:19:17.729Z,21.05
2018-04-11T13:21:46.041Z,20.94
2018-04-11T13:24:14.316Z,20.56
2018-04-11T13:26:44.034Z,20.40
2018-04-11T13:29:12.313Z,20.69
2018-04-11T13:31:40.984Z,20.46
2018-04-11T13:34:09.175Z,20.25
2018-04-11T13:36:38.266Z,20.37
2018-04-11T13:39:06.573Z,20.64
2018-04-11T13:41:35.640Z,20.96
2018-04-11T13:44:03.921Z,20.83
2018-04-11T13:46:32.180Z,20.43
2018-04-11T13:49:01.278Z,20.06
2018-04-11T13:51:29.561Z,20.10
2018-04-11T13:53:58.455Z,20.66
2018-04-11T13:56:27.501Z,20.27
2018-04-11T13:58:55.769Z,19.72
2018-04-11T14:01:24.056Z,19.90
2018-04-11T14:03:52.327Z,20.21
2018-04-11T14:06:20.637Z,20.77
2018-04-11T14:08:48.922Z,20.67
2018-04-11T14:11:17.218Z,20.82
2018-04-11T14:13:46.558Z,20.71
2018-04-11T14:16:15.039Z,20.33
2018-04-11T14:18:43.375Z,20.20
2018-04-11T14:21:11.704Z,20.36
2018-04-11T14:23:39.977Z,20.60
2018-04-11T14:26:08.273Z,20.52
2018-04-11T14:28:36.673Z,20.48
2018-04-11T14:31:05.777Z,20.17
2018-04-11T14:33:34.832Z,20.42
2018-04-11T14:36:03.128Z,20.72
2018-04-11T14:38:31.541Z,20.43
2018-04-11T14:40:59.843Z,20.07
2018-04-11T14:43:28.117Z,20.06
2018-04-11T14:45:56.419Z,20.40
2018-04-11T14:48:24.680Z,20.64
2018-04-11T14:50:52.979Z,20.76
2018-04-11T14:53:21.241Z,20.47
2018-04-11T14:55:49.899Z,20.30
2018-04-11T14:58:21.565Z,20.87
2018-04-11T15:00:50.232Z,21.04
2018-04-11T15:03:18.601Z,21.09
2018-04-11T15:05:46.893Z,20.92
2018-04-11T15:08:15.163Z,20.31
2018-04-11T15:10:43.436Z,20.52
2018-04-11T15:13:11.728Z,20.23
2018-04-11T15:15:39.992Z,19.92
2018-04-11T15:18:08.284Z,19.71
2018-04-11T15:20:36.572Z,19.44
2018-04-11T15:23:04.848Z,19.43
2018-04-11T15:25:33.148Z,19.34
2018-04-11T15:28:02.188Z,19.19
2018-04-11T15:30:30.474Z,19.08
2018-04-11T15:32:58.764Z,19.53
2018-04-11T15:35:27.073Z,20.35
2018-04-11T15:37:56.132Z,21.34
2018-04-11T15:40:24.388Z,22.35
2018-04-11T15:42:52.961Z,23.09
2018-04-11T15:45:21.370Z,24.35
2018-04-11T15:47:49.811Z,23.79
2018-04-11T15:50:18.095Z,24.51
2018-04-11T15:52:46.406Z,24.15
2018-04-11T15:55:14.866Z,22.70
2018-04-11T15:57:43.300Z,21.97
2018-04-11T16:00:12.564Z,22.14
2018-04-11T16:02:41.278Z,22.06
2018-04-11T16:05:09.767Z,22.08
2018-04-11T16:07:44.027Z,22.93
2018-04-11T16:10:12.381Z,24.19
2018-04-11T16:12:40.996Z,24.10
2018-04-11T16:15:09.395Z,24.52
2018-04-11T16:17:38.679Z,24.71
2018-04-11T16:20:07.240Z,24.45
2018-04-11T16:22:35.523Z,23.97
2018-04-11T16:25:03.938Z,23.69
2018-04-11T16:27:33.093Z,23.84
2018-04-11T16:30:01.446Z,23.44
2018-04-11T16:32:29.980Z,23.46
2018-04-11T16:34:58.341Z,22.92
2018-04-11T16:37:26.766Z,22.27
2018-04-11T16:39:55.904Z,21.44
2018-04-11T16:42:24.525Z,20.61
2018-04-11T16:44:54.142Z,20.55
2018-04-11T16:47:22.622Z,20.50
2018-04-11T16:49:52.306Z,20.87
2018-04-11T16:52:21.240Z,21.63
2018-04-11T16:54:49.584Z,21.42
2018-04-11T16:57:19.660Z,21.48
2018-04-11T16:59:48.438Z,21.35
2018-04-11T17:02:16.810Z,21.01
2018-04-11T17:04:45.202Z,21.24
2018-04-11T17:07:13.766Z,21.23
2018-04-11T17:09:42.352Z,21.08
2018-04-11T17:12:10.656Z,20.74
2018-04-11T17:14:39.024Z,20.47
2018-04-11T17:17:07.698Z,20.04
2018-04-11T17:19:36.039Z,19.81
2018-04-11T17:22:22.853Z,19.65
2018-04-11T17:25:08.937Z,19.29
2018-04-11T17:27:55.984Z,19.26
2018-04-11T17:30:42.589Z,19.08
2018-04-11T17:33:11.087Z,19.20
2018-04-11T17:35:39.500Z,19.03
2018-04-11T17:38:07.913Z,18.83
2018-04-11T17:40:36.601Z,18.69
2018-04-11T17:43:04.975Z,18.70
2018-04-11T17:45:33.507Z,18.51
2018-04-11T17:48:01.880Z,18.45
2018-04-11T17:50:30.477Z,18.38
2018-04-11T17:52:59.161Z,18.31
2018-04-11T17:55:28.320Z,18.20
2018-04-11T17:57:56.792Z,18.09
2018-04-11T18:00:25.196Z,18.06
2018-04-11T18:02:54.677Z,17.95
2018-04-11T18:05:23.224Z,17.93
2018-04-11T18:07:51.894Z,17.84
2018-04-11T18:10:21.246Z,17.77
2018-04-11T18:12:50.348Z,17.65
2018-04-11T18:15:19.136Z,17.71
2018-04-11T18:17:47.762Z,17.69
2018-04-11T18:20:16.154Z,17.67
2018-04-11T18:22:44.547Z,17.58
2018-04-11T18:25:13.373Z,17.42
2018-04-11T18:27:42.044Z,17.38
2018-04-11T18:30:10.624Z,17.32
2018-04-11T18:32:39.206Z,17.34
2018-04-11T18:35:07.660Z,17.31
2018-04-11T18:37:36.308Z,17.31
2018-04-11T18:40:04.994Z,17.24
2018-04-11T18:42:33.594Z,17.16
2018-04-11T18:45:01.950Z,17.11
2018-04-11T18:47:37.119Z,17.06
2018-04-11T18:50:11.310Z,17.09
2018-04-11T18:52:40.256Z,17.07
2018-04-11T18:55:09.778Z,16.98
2018-04-11T18:57:38.398Z,16.99
2018-04-11T19:00:07.491Z,16.93
2018-04-11T19:02:36.054Z,16.89
2018-04-11T19:05:05.476Z,16.89
2018-04-11T19:07:33.824Z,16.83
2018-04-11T19:10:03.394Z,16.78
2018-04-11T19:12:31.979Z,16.73
2018-04-11T19:15:00.941Z,16.80
2018-04-11T19:17:29.858Z,16.78
2018-04-11T19:19:58.644Z,16.70
2018-04-11T19:22:27.519Z,16.82
2018-04-11T19:24:56.489Z,16.83
2018-04-11T19:27:25.080Z,16.81
2018-04-11T19:29:53.898Z,16.85
2018-04-11T19:32:22.416Z,16.70
2018-04-11T19:34:51.099Z,16.81
2018-04-11T19:37:20.186Z,16.75
2018-04-11T19:39:48.461Z,16.73
2018-04-11T19:42:16.738Z,16.83
2018-04-11T19:44:45.022Z,16.93
2018-04-11T19:47:13.606Z,16.92
2018-04-11T19:49:41.902Z,16.88
2018-04-11T19:52:10.926Z,17.06
2018-04-11T19:54:39.268Z,17.01
2018-04-11T19:57:08.337Z,17.00
2018-04-11T19:59:36.627Z,16.96
2018-04-11T20:02:05.674Z,16.95
2018-04-11T20:04:33.991Z,16.96
2018-04-11T20:07:02.300Z,16.98
2018-04-11T20:09:30.623Z,16.91
2018-04-11T20:11:58.888Z,17.08
2018-04-11T20:14:27.358Z,16.99
2018-04-11T20:16:55.784Z,16.94
2018-04-11T20:19:24.833Z,17.00
2018-04-11T20:21:53.194Z,16.99
2018-04-11T20:24:21.578Z,16.94
2018-04-11T20:26:49.847Z,16.82
2018-04-11T20:29:18.382Z,16.86
2018-04-11T20:31:47.540Z,16.76
2018-04-11T20:34:15.809Z,16.82
2018-04-11T20:36:44.120Z,16.80
2018-04-11T20:39:12.466Z,16.75
2018-04-11T20:41:40.820Z,16.81
2018-04-11T20:44:09.112Z,16.72
2018-04-11T20:46:37.374Z,16.75
2018-04-11T20:49:05.671Z,16.84
2018-04-11T20:51:33.993Z,16.75
2018-04-11T20:54:03.335Z,16.80
2018-04-11T20:56:31.613Z,16.82
2018-04-11T20:59:00.095Z,16.82
2018-04-11T21:01:28.369Z,16.86
2018-04-11T21:03:56.654Z,16.87
2018-04-11T21:06:24.930Z,16.73
2018-04-11T21:08:53.264Z,16.82
2018-04-11T21:11:22.654Z,16.78
2018-04-11T21:13:51.739Z,16.79
2018-04-11T21:16:20.833Z,16.80
2018-04-11T21:18:49.972Z,16.83
2018-04-11T21:21:18.226Z,16.88
2018-04-11T21:23:46.500Z,16.83
2018-04-11T21:26:14.778Z,16.91
2018-04-11T21:28:43.058Z,16.81
2018-04-11T21:31:11.317Z,16.79
2018-04-11T21:33:40.394Z,16.90
2018-04-11T21:36:08.698Z,16.94
2018-04-11T21:38:36.975Z,16.88
2018-04-11T21:41:05.265Z,16.82
2018-04-11T21:43:33.529Z,16.80
2018-04-11T21:46:01.824Z,16.74
2018-04-11T21:48:30.096Z,16.75
2018-04-11T21:50:58.491Z,16.89
2018-04-11T21:53:26.733Z,16.87
2018-04-11T21:55:55.031Z,16.74
2018-04-11T21:58:23.287Z,16.87
2018-04-11T22:00:51.586Z,16.87
2018-04-11T22:03:19.843Z,17.04
2018-04-11T22:05:48.095Z,16.99
2018-04-11T22:08:16.485Z,16.99
2018-04-11T22:10:44.756Z,16.98
2018-04-11T22:13:13.038Z,16.99
2018-04-11T22:15:41.339Z,17.04
2018-04-11T22:18:09.615Z,17.00
2018-04-11T22:20:37.896Z,17.08
2018-04-11T22:23:06.182Z,17.08
2018-04-11T22:25:34.497Z,17.11
2018-04-11T22:28:02.797Z,17.16
2018-04-11T22:30:31.071Z,17.29
2018-04-11T22:32:59.351Z,17.04
2018-04-11T22:35:27.880Z,17.20
2018-04-11T22:37:56.270Z,17.14
2018-04-11T22:40:25.320Z,17.14
2018-04-11T22:42:53.584Z,17.09
2018-04-11T22:45:21.842Z,17.13
2018-04-11T22:47:51.059Z,17.11
2018-04-11T22:50:19.364Z,17.02
2018-04-11T22:52:47.762Z,17.01
2018-04-11T22:55:17.003Z,17.13
2018-04-11T22:57:45.282Z,17.22
2018-04-11T23:00:13.655Z,17.26
2018-04-11T23:02:41.909Z,17.06
2018-04-11T23:05:10.243Z,16.96
2018-04-11T23:07:39.284Z,17.05
2018-04-11T23:10:07.548Z,17.12
2018-04-11T23:12:36.769Z,17.16
2018-04-11T23:15:05.033Z,17.04
2018-04-11T23:17:33.861Z,17.01
2018-04-11T23:20:02.165Z,16.98
2018-04-11T23:22:31.326Z,17.04
2018-04-11T23:24:59.607Z,17.04
2018-04-11T23:27:27.879Z,16.93
2018-04-11T23:29:56.156Z,17.03
2018-04-11T23:32:24.557Z,16.96
2018-04-11T23:34:52.813Z,16.92
2018-04-11T23:37:21.095Z,17.06
2018-04-11T23:39:49.366Z,17.05
2018-04-11T23:42:17.663Z,17.08
2018-04-11T23:44:46.685Z,16.95
2018-04-11T23:47:14.978Z,16.91
2018-04-11T23:49:43.352Z,16.90
2018-04-11T23:52:11.626Z,16.91
2018-04-11T23:54:39.902Z,16.79
2018-04-11T23:57:08.207Z,16.96
2018-04-11T23:59:36.699Z,16.96
